createdAt,value
2019-01-04T00:00:30.180Z,1010.6
2019-01-04T00:01:30.175Z,1010.68
2019-01-04T00:02:30.161Z,1010.65
2019-01-04T00:03:30.150Z,1010.66
2019-01-04T00:04:30.139Z,1010.63
2019-01-04T00:05:30.127Z,1010.67
2019-01-04T00:06:30.116Z,1010.73
2019-01-04T00:07:30.108Z,1010.71
2019-01-04T00:08:30.093Z,1010.74
2019-01-04T00:09:30.084Z,1010.76
2019-01-04T00:10:30.089Z,1010.73
2019-01-04T00:11:30.069Z,1010.72
2019-01-04T00:12:30.117Z,1010.7
2019-01-04T00:13:30.050Z,1010.71
2019-01-04T00:14:30.030Z,1010.68
2019-01-04T00:15:30.026Z,1010.66
2019-01-04T00:16:30.072Z,1010.64
2019-01-04T00:17:30.001Z,1010.62
2019-01-04T00:18:29.988Z,1010.63
2019-01-04T00:19:29.979Z,1010.6
2019-01-04T00:20:29.971Z,1010.57
2019-01-04T00:21:29.976Z,1010.59
2019-01-04T00:22:29.948Z,1010.62
2019-01-04T00:23:29.937Z,1010.65
2019-01-04T00:24:30.015Z,1010.6
2019-01-04T00:25:29.914Z,1010.62
2019-01-04T00:26:29.978Z,1010.64
2019-01-04T00:27:29.892Z,1010.61
2019-01-04T00:28:29.884Z,1010.6
2019-01-04T00:29:29.872Z,1010.55
2019-01-04T00:30:29.861Z,1010.61
2019-01-04T00:31:29.857Z,1010.57
2019-01-04T00:32:29.845Z,1010.58
2019-01-04T00:33:29.837Z,1010.64
2019-01-04T00:34:29.821Z,1010.65
2019-01-04T00:35:29.808Z,1010.6
2019-01-04T00:36:29.849Z,1010.62
2019-01-04T00:37:29.794Z,1010.64
2019-01-04T00:38:29.777Z,1010.64
2019-01-04T00:39:29.768Z,1010.63
2019-01-04T00:40:29.761Z,1010.63
2019-01-04T00:41:29.765Z,1010.58
2019-01-04T00:42:29.744Z,1010.61
2019-01-04T00:43:29.748Z,1010.58
2019-01-04T00:44:29.720Z,1010.59
2019-01-04T00:45:29.702Z,1010.57
2019-01-04T00:46:29.771Z,1010.6
2019-01-04T00:47:29.692Z,1010.61
2019-01-04T00:48:29.678Z,1010.62
2019-01-04T00:49:29.661Z,1010.61
2019-01-04T00:50:29.657Z,1010.6
2019-01-04T00:51:29.698Z,1010.63
2019-01-04T00:52:29.629Z,1010.58
2019-01-04T00:53:29.624Z,1010.59
2019-01-04T00:54:29.615Z,1010.56
2019-01-04T00:55:29.599Z,1010.51
2019-01-04T00:56:29.654Z,1010.53
2019-01-04T00:57:29.579Z,1010.51
2019-01-04T00:58:29.570Z,1010.51
2019-01-04T00:59:29.558Z,1010.5
2019-01-04T01:00:29.549Z,1010.45
2019-01-04T01:01:29.535Z,1010.49
2019-01-04T01:02:29.526Z,1010.46
2019-01-04T01:03:29.515Z,1010.48
2019-01-04T01:04:29.556Z,1010.46
2019-01-04T01:05:29.508Z,1010.44
2019-01-04T01:06:29.493Z,1010.49
2019-01-04T01:07:29.473Z,1010.47
2019-01-04T01:08:29.462Z,1010.48
2019-01-04T01:09:29.451Z,1010.49
2019-01-04T01:10:29.446Z,1010.44
2019-01-04T01:11:29.431Z,1010.48
2019-01-04T01:12:29.420Z,1010.45
2019-01-04T01:13:29.415Z,1010.44
2019-01-04T01:14:29.401Z,1010.47
2019-01-04T01:15:29.387Z,1010.41
2019-01-04T01:16:29.400Z,1010.43
2019-01-04T01:17:29.373Z,1010.39
2019-01-04T01:18:29.358Z,1010.39
2019-01-04T01:19:32.048Z,1010.36
2019-01-04T01:20:29.337Z,1010.36
2019-01-04T01:21:29.381Z,1010.34
2019-01-04T01:22:29.317Z,1010.37
2019-01-04T01:23:29.305Z,1010.32
2019-01-04T01:24:29.291Z,1010.31
2019-01-04T01:25:29.284Z,1010.36
2019-01-04T01:26:29.297Z,1010.36
2019-01-04T01:27:29.269Z,1010.32
2019-01-04T01:28:29.255Z,1010.29
2019-01-04T01:29:29.239Z,1010.31
2019-01-04T01:30:29.230Z,1010.33
2019-01-04T01:31:29.264Z,1010.3
2019-01-04T01:32:29.211Z,1010.3
2019-01-04T01:33:29.200Z,1010.3
2019-01-04T01:34:29.187Z,1010.31
2019-01-04T01:35:29.178Z,1010.3
2019-01-04T01:36:29.181Z,1010.29
2019-01-04T01:37:29.152Z,1010.3
2019-01-04T01:38:29.158Z,1010.33
2019-01-04T01:39:29.136Z,1010.33
2019-01-04T01:40:29.123Z,1010.34
2019-01-04T01:41:29.163Z,1010.32
2019-01-04T01:42:29.105Z,1010.31
2019-01-04T01:43:29.091Z,1010.34
2019-01-04T01:44:29.079Z,1010.33
2019-01-04T01:45:29.078Z,1010.26
2019-01-04T01:46:29.096Z,1010.29
2019-01-04T01:47:29.049Z,1010.28
2019-01-04T01:48:29.046Z,1010.28
2019-01-04T01:49:29.041Z,1010.29
2019-01-04T01:50:29.019Z,1010.26
2019-01-04T01:51:29.103Z,1010.26
2019-01-04T01:52:28.995Z,1010.24
2019-01-04T01:53:28.990Z,1010.28
2019-01-04T01:54:28.985Z,1010.27
2019-01-04T01:55:28.964Z,1010.28
2019-01-04T01:56:29.107Z,1010.26
2019-01-04T01:57:28.944Z,1010.29
2019-01-04T01:58:28.929Z,1010.28
2019-01-04T01:59:28.932Z,1010.24
2019-01-04T02:00:28.922Z,1010.3
2019-01-04T02:01:28.922Z,1010.26
2019-01-04T02:02:28.888Z,1010.27
2019-01-04T02:03:28.880Z,1010.3
2019-01-04T02:04:28.869Z,1010.29
2019-01-04T02:05:28.855Z,1010.28
2019-01-04T02:06:28.846Z,1010.29
2019-01-04T02:07:28.842Z,1010.3
2019-01-04T02:08:28.827Z,1010.29
2019-01-04T02:09:28.812Z,1010.27
2019-01-04T02:10:28.804Z,1010.23
2019-01-04T02:11:28.887Z,1010.26
2019-01-04T02:12:28.783Z,1010.24
2019-01-04T02:13:28.771Z,1010.25
2019-01-04T02:14:28.759Z,1010.32
2019-01-04T02:15:28.752Z,1010.29
2019-01-04T02:16:28.752Z,1010.32
2019-01-04T02:17:28.728Z,1010.32
2019-01-04T02:18:28.722Z,1010.41
2019-01-04T02:19:28.716Z,1010.38
2019-01-04T02:20:28.696Z,1010.37
2019-01-04T02:21:28.764Z,1010.39
2019-01-04T02:22:28.692Z,1010.39
2019-01-04T02:23:28.662Z,1010.36
2019-01-04T02:24:28.660Z,1010.39
2019-01-04T02:25:28.654Z,1010.37
2019-01-04T02:26:28.706Z,1010.34
2019-01-04T02:27:28.619Z,1010.35
2019-01-04T02:28:28.608Z,1010.41
2019-01-04T02:29:28.604Z,1010.4
2019-01-04T02:30:28.595Z,1010.41
2019-01-04T02:31:28.597Z,1010.44
2019-01-04T02:32:28.583Z,1010.41
2019-01-04T02:33:28.575Z,1010.41
2019-01-04T02:34:28.547Z,1010.36
2019-01-04T02:35:28.533Z,1010.35
2019-01-04T02:36:28.547Z,1010.34
2019-01-04T02:37:28.517Z,1010.33
2019-01-04T02:38:28.528Z,1010.29
2019-01-04T02:39:28.491Z,1010.3
2019-01-04T02:40:28.481Z,1010.33
2019-01-04T02:41:28.580Z,1010.28
2019-01-04T02:42:28.471Z,1010.33
2019-01-04T02:43:28.446Z,1010.36
2019-01-04T02:44:28.438Z,1010.4
2019-01-04T02:45:28.423Z,1010.45
2019-01-04T02:46:28.474Z,1010.42
2019-01-04T02:47:28.405Z,1010.48
2019-01-04T02:48:28.397Z,1010.51
2019-01-04T02:49:28.385Z,1010.45
2019-01-04T02:50:28.370Z,1010.43
2019-01-04T02:51:28.415Z,1010.47
2019-01-04T02:52:28.350Z,1010.43
2019-01-04T02:53:28.343Z,1010.44
2019-01-04T02:54:28.329Z,1010.41
2019-01-04T02:55:28.317Z,1010.4
2019-01-04T02:56:28.312Z,1010.44
2019-01-04T02:57:28.297Z,1010.35
2019-01-04T02:58:28.286Z,1010.35
2019-01-04T02:59:28.277Z,1010.32
2019-01-04T03:00:28.262Z,1010.29
2019-01-04T03:01:28.258Z,1010.29
2019-01-04T03:02:28.240Z,1010.3
2019-01-04T03:03:28.229Z,1010.28
2019-01-04T03:04:28.218Z,1010.3
2019-01-04T03:05:28.209Z,1010.26
2019-01-04T03:06:28.255Z,1010.23
2019-01-04T03:07:28.183Z,1010.25
2019-01-04T03:08:28.172Z,1010.29
2019-01-04T03:09:28.163Z,1010.3
2019-01-04T03:10:28.153Z,1010.28
2019-01-04T03:11:28.241Z,1010.25
2019-01-04T03:12:28.129Z,1010.26
2019-01-04T03:13:28.117Z,1010.25
2019-01-04T03:14:28.107Z,1010.26
2019-01-04T03:15:28.096Z,1010.28
2019-01-04T03:16:28.085Z,1010.26
2019-01-04T03:17:28.076Z,1010.21
2019-01-04T03:18:28.062Z,1010.17
2019-01-04T03:19:28.050Z,1010.13
2019-01-04T03:20:28.040Z,1010.12
2019-01-04T03:21:28.042Z,1010.11
2019-01-04T03:22:28.018Z,1010.08
2019-01-04T03:23:28.008Z,1010.06
2019-01-04T03:24:27.995Z,1010.09
2019-01-04T03:25:27.993Z,1010.08
2019-01-04T03:26:27.999Z,1010.09
2019-01-04T03:27:27.962Z,1010.12
2019-01-04T03:28:27.951Z,1010.1
2019-01-04T03:29:27.940Z,1010.12
2019-01-04T03:30:27.932Z,1010.11
2019-01-04T03:31:27.950Z,1010.14
2019-01-04T03:32:27.919Z,1010.13
2019-01-04T03:33:27.895Z,1010.13
2019-01-04T03:34:27.885Z,1010.09
2019-01-04T03:35:27.873Z,1010.12
2019-01-04T03:36:27.865Z,1010.11
2019-01-04T03:37:27.859Z,1010.13
2019-01-04T03:38:27.842Z,1010.13
2019-01-04T03:39:27.833Z,1010.19
2019-01-04T03:40:27.819Z,1010.16
2019-01-04T03:41:27.809Z,1010.2
2019-01-04T03:42:27.804Z,1010.18
2019-01-04T03:43:27.785Z,1010.16
2019-01-04T03:44:27.772Z,1010.25
2019-01-04T03:45:27.763Z,1010.26
2019-01-04T03:46:27.750Z,1010.26
2019-01-04T03:47:27.741Z,1010.26
2019-01-04T03:48:27.732Z,1010.31
2019-01-04T03:49:27.722Z,1010.31
2019-01-04T03:50:27.718Z,1010.33
2019-01-04T03:51:27.699Z,1010.36
2019-01-04T03:52:27.690Z,1010.37
2019-01-04T03:53:27.676Z,1010.35
2019-01-04T03:54:27.669Z,1010.36
2019-01-04T03:55:27.664Z,1010.39
2019-01-04T03:56:27.642Z,1010.36
2019-01-04T03:57:27.633Z,1010.39
2019-01-04T03:58:27.620Z,1010.39
2019-01-04T03:59:27.610Z,1010.35
2019-01-04T04:00:27.603Z,1010.41
2019-01-04T04:01:27.586Z,1010.39
2019-01-04T04:02:27.575Z,1010.33
2019-01-04T04:03:27.565Z,1010.35
2019-01-04T04:04:27.558Z,1010.33
2019-01-04T04:05:27.548Z,1010.34
2019-01-04T04:06:27.531Z,1010.32
2019-01-04T04:07:27.521Z,1010.28
2019-01-04T04:08:27.508Z,1010.24
2019-01-04T04:09:27.497Z,1010.2
2019-01-04T04:10:27.493Z,1010.22
2019-01-04T04:11:27.551Z,1010.17
2019-01-04T04:12:27.471Z,1010.19
2019-01-04T04:13:27.455Z,1010.2
2019-01-04T04:14:27.454Z,1010.19
2019-01-04T04:15:27.439Z,1010.2
2019-01-04T04:16:27.420Z,1010.19
2019-01-04T04:17:27.407Z,1010.26
2019-01-04T04:18:27.398Z,1010.21
2019-01-04T04:19:27.390Z,1010.22
2019-01-04T04:20:27.383Z,1010.24
2019-01-04T04:21:27.383Z,1010.29
2019-01-04T04:22:27.351Z,1010.25
2019-01-04T04:23:27.344Z,1010.27
2019-01-04T04:24:27.329Z,1010.3
2019-01-04T04:25:27.320Z,1010.32
2019-01-04T04:26:27.320Z,1010.35
2019-01-04T04:27:27.300Z,1010.34
2019-01-04T04:28:27.288Z,1010.3
2019-01-04T04:29:27.276Z,1010.34
2019-01-04T04:30:27.262Z,1010.34
2019-01-04T04:31:27.252Z,1010.31
2019-01-04T04:32:27.243Z,1010.31
2019-01-04T04:33:27.230Z,1010.37
2019-01-04T04:34:27.231Z,1010.32
2019-01-04T04:35:27.217Z,1010.31
2019-01-04T04:36:27.258Z,1010.32
2019-01-04T04:37:27.185Z,1010.32
2019-01-04T04:38:27.177Z,1010.3
2019-01-04T04:39:27.172Z,1010.26
2019-01-04T04:40:27.162Z,1010.26
2019-01-04T04:41:27.142Z,1010.27
2019-01-04T04:42:27.132Z,1010.29
2019-01-04T04:43:27.137Z,1010.31
2019-01-04T04:44:27.122Z,1010.32
2019-01-04T04:45:27.102Z,1010.3
2019-01-04T04:46:27.086Z,1010.29
2019-01-04T04:47:27.081Z,1010.27
2019-01-04T04:48:27.066Z,1010.32
2019-01-04T04:49:27.063Z,1010.28
2019-01-04T04:50:27.042Z,1010.33
2019-01-04T04:51:27.030Z,1010.31
2019-01-04T04:52:27.027Z,1010.31
2019-01-04T04:53:27.010Z,1010.29
2019-01-04T04:54:27.015Z,1010.26
2019-01-04T04:55:26.987Z,1010.24
2019-01-04T04:56:26.977Z,1010.22
2019-01-04T04:57:26.964Z,1010.19
2019-01-04T04:58:26.954Z,1010.16
2019-01-04T04:59:26.941Z,1010.14
2019-01-04T05:00:26.942Z,1010.13
2019-01-04T05:01:26.920Z,1010.15
2019-01-04T05:02:26.917Z,1010.1
2019-01-04T05:03:26.903Z,1010.14
2019-01-04T05:04:26.896Z,1010.17
2019-01-04T05:05:26.908Z,1010.14
2019-01-04T05:06:26.875Z,1010.12
2019-01-04T05:07:26.861Z,1010.16
2019-01-04T05:08:26.843Z,1010.14
2019-01-04T05:09:26.851Z,1010.12
2019-01-04T05:10:26.850Z,1010.14
2019-01-04T05:11:26.812Z,1010.13
2019-01-04T05:12:26.799Z,1010.13
2019-01-04T05:13:26.788Z,1010.1
2019-01-04T05:14:26.777Z,1010.08
2019-01-04T05:15:26.774Z,1010.11
2019-01-04T05:16:26.765Z,1010.11
2019-01-04T05:17:26.744Z,1010.06
2019-01-04T05:18:26.745Z,1010.06
2019-01-04T05:19:26.725Z,1010.01
2019-01-04T05:20:26.716Z,1009.97
2019-01-04T05:21:26.706Z,1009.98
2019-01-04T05:22:27.939Z,1009.99
2019-01-04T05:23:26.687Z,1009.99
2019-01-04T05:24:26.672Z,1009.99
2019-01-04T05:25:26.658Z,1010.02
2019-01-04T05:26:26.655Z,1009.93
2019-01-04T05:27:26.634Z,1009.96
2019-01-04T05:28:26.624Z,1009.99
2019-01-04T05:29:26.618Z,1010.02
2019-01-04T05:30:26.601Z,1010
2019-01-04T05:31:26.596Z,1009.99
2019-01-04T05:32:26.598Z,1010.04
2019-01-04T05:33:26.567Z,1010.03
2019-01-04T05:34:26.556Z,1010.03
2019-01-04T05:35:26.543Z,1010.06
2019-01-04T05:36:26.537Z,1010.05
2019-01-04T05:37:26.536Z,1010.03
2019-01-04T05:38:26.510Z,1010.05
2019-01-04T05:39:26.501Z,1010.02
2019-01-04T05:40:26.488Z,1010.05
2019-01-04T05:41:26.475Z,1009.99
2019-01-04T05:42:26.468Z,1009.97
2019-01-04T05:43:26.456Z,1009.97
2019-01-04T05:44:26.442Z,1010.01
2019-01-04T05:45:26.434Z,1010.02
2019-01-04T05:46:26.429Z,1010.04
2019-01-04T05:47:26.411Z,1010
2019-01-04T05:48:26.398Z,1010.03
2019-01-04T05:49:26.388Z,1010.08
2019-01-04T05:50:26.377Z,1010.11
2019-01-04T05:51:26.368Z,1010.14
2019-01-04T05:52:26.359Z,1010.16
2019-01-04T05:53:26.343Z,1010.2
2019-01-04T05:54:26.342Z,1010.21
2019-01-04T05:55:26.324Z,1010.28
2019-01-04T05:56:26.308Z,1010.3
2019-01-04T05:57:26.298Z,1010.28
2019-01-04T05:58:26.286Z,1010.3
2019-01-04T05:59:26.285Z,1010.3
2019-01-04T06:00:26.280Z,1010.27
2019-01-04T06:01:26.256Z,1010.24
2019-01-04T06:02:26.243Z,1010.26
2019-01-04T06:03:26.276Z,1010.21
2019-01-04T06:04:26.223Z,1010.19
2019-01-04T06:05:26.211Z,1010.19
2019-01-04T06:06:26.198Z,1010.17
2019-01-04T06:07:26.198Z,1010.16
2019-01-04T06:08:26.218Z,1010.16
2019-01-04T06:09:26.169Z,1010.11
2019-01-04T06:10:26.149Z,1010.07
2019-01-04T06:11:26.139Z,1010.11
2019-01-04T06:12:26.126Z,1010.04
2019-01-04T06:13:26.117Z,1010.05
2019-01-04T06:14:26.103Z,1010.11
2019-01-04T06:15:26.093Z,1010.09
2019-01-04T06:16:26.081Z,1010.11
2019-01-04T06:17:26.076Z,1010.08
2019-01-04T06:18:26.077Z,1010.13
2019-01-04T06:19:26.063Z,1010.1
2019-01-04T06:20:26.045Z,1010.16
2019-01-04T06:21:26.024Z,1010.15
2019-01-04T06:22:26.017Z,1010.11
2019-01-04T06:23:26.010Z,1010.14
2019-01-04T06:24:25.994Z,1010.11
2019-01-04T06:25:25.981Z,1010.11
2019-01-04T06:26:25.969Z,1010.13
2019-01-04T06:27:25.962Z,1010.15
2019-01-04T06:28:25.950Z,1010.13
2019-01-04T06:29:25.934Z,1010.1
2019-01-04T06:30:25.922Z,1010.12
2019-01-04T06:31:25.927Z,1010.1
2019-01-04T06:32:25.901Z,1010.11
2019-01-04T06:33:25.892Z,1010.12
2019-01-04T06:34:25.880Z,1010.07
2019-01-04T06:35:25.866Z,1010.04
2019-01-04T06:36:25.853Z,1010.04
2019-01-04T06:37:25.842Z,1010.05
2019-01-04T06:38:25.829Z,1010.1
2019-01-04T06:39:25.817Z,1010.15
2019-01-04T06:40:25.808Z,1010.16
2019-01-04T06:41:25.796Z,1010.16
2019-01-04T06:42:25.785Z,1010.15
2019-01-04T06:43:25.773Z,1010.17
2019-01-04T06:44:25.770Z,1010.19
2019-01-04T06:45:25.750Z,1010.21
2019-01-04T06:46:25.738Z,1010.21
2019-01-04T06:47:25.726Z,1010.22
2019-01-04T06:48:25.719Z,1010.3
2019-01-04T06:49:25.704Z,1010.34
2019-01-04T06:50:25.694Z,1010.32
2019-01-04T06:51:27.817Z,1010.39
2019-01-04T06:52:25.669Z,1010.34
2019-01-04T06:53:25.660Z,1010.32
2019-01-04T06:54:25.647Z,1010.33
2019-01-04T06:55:25.641Z,1010.36
2019-01-04T06:56:25.626Z,1010.39
2019-01-04T06:57:25.612Z,1010.42
2019-01-04T06:58:25.606Z,1010.42
2019-01-04T06:59:25.590Z,1010.44
2019-01-04T07:00:25.585Z,1010.44
2019-01-04T07:01:25.567Z,1010.48
2019-01-04T07:02:25.556Z,1010.47
2019-01-04T07:03:25.545Z,1010.45
2019-01-04T07:04:25.536Z,1010.43
2019-01-04T07:05:25.523Z,1010.45
2019-01-04T07:06:25.513Z,1010.45
2019-01-04T07:07:25.520Z,1010.44
2019-01-04T07:08:25.493Z,1010.48
2019-01-04T07:09:25.489Z,1010.5
2019-01-04T07:10:25.464Z,1010.5
2019-01-04T07:11:25.456Z,1010.46
2019-01-04T07:12:25.441Z,1010.47
2019-01-04T07:13:25.439Z,1010.47
2019-01-04T07:14:25.421Z,1010.47
2019-01-04T07:15:25.406Z,1010.55
2019-01-04T07:16:25.397Z,1010.53
2019-01-04T07:17:25.382Z,1010.58
2019-01-04T07:18:25.373Z,1010.63
2019-01-04T07:19:25.366Z,1010.59
2019-01-04T07:20:25.357Z,1010.59
2019-01-04T07:21:25.343Z,1010.62
2019-01-04T07:22:25.328Z,1010.65
2019-01-04T07:23:29.519Z,1010.68
2019-01-04T07:24:25.305Z,1010.69
2019-01-04T07:25:25.309Z,1010.73
2019-01-04T07:26:25.286Z,1010.76
2019-01-04T07:27:25.269Z,1010.78
2019-01-04T07:28:25.263Z,1010.77
2019-01-04T07:29:25.247Z,1010.77
2019-01-04T07:30:25.237Z,1010.78
2019-01-04T07:31:25.226Z,1010.82
2019-01-04T07:32:25.214Z,1010.75
2019-01-04T07:33:25.216Z,1010.75
2019-01-04T07:34:25.208Z,1010.8
2019-01-04T07:35:25.191Z,1010.8
2019-01-04T07:36:25.168Z,1010.81
2019-01-04T07:37:25.160Z,1010.85
2019-01-04T07:38:25.176Z,1010.86
2019-01-04T07:39:25.137Z,1010.86
2019-01-04T07:40:25.124Z,1010.84
2019-01-04T07:41:25.119Z,1010.87
2019-01-04T07:42:25.104Z,1010.86
2019-01-04T07:43:25.091Z,1010.86
2019-01-04T07:44:25.084Z,1010.82
2019-01-04T07:45:25.068Z,1010.85
2019-01-04T07:46:25.075Z,1010.86
2019-01-04T07:47:25.046Z,1010.88
2019-01-04T07:48:25.037Z,1010.89
2019-01-04T07:49:25.029Z,1010.84
2019-01-04T07:50:25.014Z,1010.82
2019-01-04T07:51:25.009Z,1010.79
2019-01-04T07:52:24.990Z,1010.77
2019-01-04T07:53:24.984Z,1010.72
2019-01-04T07:54:24.967Z,1010.75
2019-01-04T07:55:24.984Z,1010.73
2019-01-04T07:56:24.945Z,1010.72
2019-01-04T07:57:24.950Z,1010.67
2019-01-04T07:58:24.924Z,1010.68
2019-01-04T07:59:24.917Z,1010.68
2019-01-04T08:00:24.900Z,1010.76
2019-01-04T08:01:24.891Z,1010.68
2019-01-04T08:02:24.880Z,1010.76
2019-01-04T08:03:24.867Z,1010.74
2019-01-04T08:04:24.858Z,1010.78
2019-01-04T08:05:24.850Z,1010.76
2019-01-04T08:06:24.834Z,1010.8
2019-01-04T08:07:24.824Z,1010.79
2019-01-04T08:08:24.831Z,1010.82
2019-01-04T08:09:24.856Z,1010.8
2019-01-04T08:10:24.797Z,1010.82
2019-01-04T08:11:24.779Z,1010.82
2019-01-04T08:12:24.775Z,1010.8
2019-01-04T08:13:24.758Z,1010.79
2019-01-04T08:14:24.762Z,1010.83
2019-01-04T08:15:24.735Z,1010.79
2019-01-04T08:16:24.726Z,1010.82
2019-01-04T08:17:24.714Z,1010.8
2019-01-04T08:18:24.703Z,1010.78
2019-01-04T08:19:24.718Z,1010.78
2019-01-04T08:20:24.681Z,1010.79
2019-01-04T08:21:24.687Z,1010.79
2019-01-04T08:22:24.661Z,1010.82
2019-01-04T08:23:24.692Z,1010.9
2019-01-04T08:24:25.258Z,1010.88
2019-01-04T08:25:24.630Z,1010.91
2019-01-04T08:26:24.618Z,1010.92
2019-01-04T08:27:24.607Z,1010.88
2019-01-04T08:28:24.599Z,1010.9
2019-01-04T08:29:24.591Z,1010.9
2019-01-04T08:30:24.575Z,1010.9
2019-01-04T08:31:24.565Z,1010.94
2019-01-04T08:32:24.557Z,1010.95
2019-01-04T08:33:24.544Z,1010.94
2019-01-04T08:34:24.537Z,1010.95
2019-01-04T08:35:24.537Z,1010.96
2019-01-04T08:36:24.513Z,1010.95
2019-01-04T08:37:24.501Z,1010.97
2019-01-04T08:38:24.491Z,1010.92
2019-01-04T08:39:24.540Z,1010.92
2019-01-04T08:40:24.493Z,1010.96
2019-01-04T08:41:24.484Z,1010.97
2019-01-04T08:42:24.453Z,1010.91
2019-01-04T08:43:24.440Z,1010.94
2019-01-04T08:44:24.439Z,1010.92
2019-01-04T08:45:24.422Z,1010.92
2019-01-04T08:46:24.409Z,1010.91
2019-01-04T08:47:24.400Z,1010.91
2019-01-04T08:48:24.390Z,1010.9
2019-01-04T08:49:24.390Z,1010.91
2019-01-04T08:50:24.378Z,1010.87
2019-01-04T08:51:24.364Z,1010.86
2019-01-04T08:52:24.367Z,1010.84
2019-01-04T08:53:24.342Z,1010.85
2019-01-04T08:54:24.333Z,1010.8
2019-01-04T08:55:24.338Z,1010.85
2019-01-04T08:56:24.312Z,1010.79
2019-01-04T08:57:24.300Z,1010.8
2019-01-04T08:58:24.291Z,1010.76
2019-01-04T08:59:24.281Z,1010.79
2019-01-04T09:00:24.273Z,1010.78
2019-01-04T09:01:24.263Z,1010.86
2019-01-04T09:02:24.250Z,1010.82
2019-01-04T09:03:24.257Z,1010.8
2019-01-04T09:04:24.235Z,1010.88
2019-01-04T09:05:24.219Z,1010.89
2019-01-04T09:06:24.210Z,1010.91
2019-01-04T09:07:24.200Z,1010.89
2019-01-04T09:08:24.192Z,1010.9
2019-01-04T09:09:24.191Z,1010.88
2019-01-04T09:10:24.172Z,1010.86
2019-01-04T09:11:24.160Z,1010.85
2019-01-04T09:12:24.154Z,1010.86
2019-01-04T09:13:24.149Z,1010.83
2019-01-04T09:14:24.140Z,1010.81
2019-01-04T09:15:24.122Z,1010.82
2019-01-04T09:16:24.115Z,1010.83
2019-01-04T09:17:24.102Z,1010.76
2019-01-04T09:18:24.092Z,1010.76
2019-01-04T09:19:24.086Z,1010.77
2019-01-04T09:20:24.072Z,1010.79
2019-01-04T09:21:24.062Z,1010.79
2019-01-04T09:22:24.054Z,1010.83
2019-01-04T09:23:24.050Z,1010.88
2019-01-04T09:24:24.034Z,1010.9
2019-01-04T09:25:24.033Z,1010.86
2019-01-04T09:26:24.014Z,1010.89
2019-01-04T09:27:24.014Z,1010.86
2019-01-04T09:28:24.000Z,1010.93
2019-01-04T09:29:23.992Z,1010.87
2019-01-04T09:30:23.992Z,1010.86
2019-01-04T09:31:23.990Z,1010.82
2019-01-04T09:32:23.962Z,1010.84
2019-01-04T09:33:23.962Z,1010.84
2019-01-04T09:34:23.939Z,1010.78
2019-01-04T09:35:23.933Z,1010.79
2019-01-04T09:36:23.939Z,1010.79
2019-01-04T09:37:23.913Z,1010.8
2019-01-04T09:38:23.904Z,1010.8
2019-01-04T09:39:23.900Z,1010.78
2019-01-04T09:40:23.935Z,1010.74
2019-01-04T09:41:23.883Z,1010.77
2019-01-04T09:42:23.871Z,1010.79
2019-01-04T09:43:23.858Z,1010.81
2019-01-04T09:44:23.851Z,1010.82
2019-01-04T09:45:23.841Z,1010.79
2019-01-04T09:46:23.833Z,1010.77
2019-01-04T09:47:23.824Z,1010.76
2019-01-04T09:48:23.818Z,1010.81
2019-01-04T09:49:23.816Z,1010.8
2019-01-04T09:50:23.799Z,1010.81
2019-01-04T09:51:23.789Z,1010.82
2019-01-04T09:52:23.784Z,1010.78
2019-01-04T09:53:23.771Z,1010.84
2019-01-04T09:54:23.764Z,1010.8
2019-01-04T09:55:25.658Z,1010.77
2019-01-04T09:56:23.747Z,1010.86
2019-01-04T09:57:23.840Z,1010.85
2019-01-04T09:58:23.744Z,1010.74
2019-01-04T09:59:23.722Z,1010.73
2019-01-04T10:00:23.711Z,1010.69
2019-01-04T10:01:23.702Z,1010.66
2019-01-04T10:02:23.695Z,1010.61
2019-01-04T10:03:23.689Z,1010.64
2019-01-04T10:04:23.679Z,1010.57
2019-01-04T10:05:23.672Z,1010.61
2019-01-04T10:06:23.665Z,1010.53
2019-01-04T10:07:23.654Z,1010.53
2019-01-04T10:08:23.652Z,1010.5
2019-01-04T10:09:23.639Z,1010.49
2019-01-04T10:10:23.629Z,1010.53
2019-01-04T10:11:23.622Z,1010.52
2019-01-04T10:12:23.613Z,1010.55
2019-01-04T10:13:23.604Z,1010.52
2019-01-04T10:14:23.595Z,1010.45
2019-01-04T10:15:23.599Z,1010.46
2019-01-04T10:16:23.587Z,1010.47
2019-01-04T10:17:23.585Z,1010.44
2019-01-04T10:18:23.559Z,1010.49
2019-01-04T10:19:23.552Z,1010.44
2019-01-04T10:20:23.547Z,1010.39
2019-01-04T10:21:23.537Z,1010.31
2019-01-04T10:22:23.528Z,1010.32
2019-01-04T10:23:23.519Z,1010.34
2019-01-04T10:24:23.509Z,1010.32
2019-01-04T10:25:23.511Z,1010.33
2019-01-04T10:26:23.494Z,1010.33
2019-01-04T10:27:23.493Z,1010.3
2019-01-04T10:28:23.474Z,1010.32
2019-01-04T10:29:23.486Z,1010.27
2019-01-04T10:30:23.459Z,1010.29
2019-01-04T10:31:23.449Z,1010.25
2019-01-04T10:32:23.467Z,1010.22
2019-01-04T10:33:23.480Z,1010.26
2019-01-04T10:34:23.422Z,1010.21
2019-01-04T10:35:23.415Z,1010.18
2019-01-04T10:36:23.408Z,1010.16
2019-01-04T10:37:23.400Z,1010.19
2019-01-04T10:38:23.390Z,1010.13
2019-01-04T10:39:23.384Z,1010.17
2019-01-04T10:40:23.373Z,1010.16
2019-01-04T10:41:23.364Z,1010.11
2019-01-04T10:42:23.372Z,1010.09
2019-01-04T10:43:23.346Z,1010.06
2019-01-04T10:44:23.350Z,1010.11
2019-01-04T10:45:23.330Z,1010.04
2019-01-04T10:46:23.320Z,1010.08
2019-01-04T10:47:23.310Z,1010.08
2019-01-04T10:48:23.309Z,1010.07
2019-01-04T10:49:23.307Z,1010.08
2019-01-04T10:50:23.289Z,1010.07
2019-01-04T10:51:23.272Z,1010.04
2019-01-04T10:52:24.071Z,1010.02
2019-01-04T10:53:23.257Z,1010.07
2019-01-04T10:54:23.255Z,1010.08
2019-01-04T10:55:23.255Z,1010.08
2019-01-04T10:56:23.228Z,1010.03
2019-01-04T10:57:23.221Z,1010.1
2019-01-04T10:58:23.209Z,1010.08
2019-01-04T10:59:23.204Z,1010.04
2019-01-04T11:00:23.194Z,1010.07
2019-01-04T11:01:23.181Z,1010.04
2019-01-04T11:02:23.175Z,1010.01
2019-01-04T11:03:23.163Z,1010.04
2019-01-04T11:04:23.158Z,1010.04
2019-01-04T11:05:23.147Z,1010.03
2019-01-04T11:06:23.139Z,1010.05
2019-01-04T11:07:23.126Z,1010.06
2019-01-04T11:08:23.133Z,1010.05
2019-01-04T11:09:23.110Z,1010.05
2019-01-04T11:10:23.102Z,1010.02
2019-01-04T11:11:24.192Z,1009.98
2019-01-04T11:12:23.082Z,1009.97
2019-01-04T11:13:23.071Z,1009.95
2019-01-04T11:14:23.061Z,1009.96
2019-01-04T11:15:23.051Z,1009.93
2019-01-04T11:16:23.048Z,1009.94
2019-01-04T11:17:23.036Z,1009.9
2019-01-04T11:18:23.031Z,1009.9
2019-01-04T11:19:23.015Z,1009.89
2019-01-04T11:20:23.002Z,1009.9
2019-01-04T11:21:22.994Z,1009.87
2019-01-04T11:22:22.985Z,1009.89
2019-01-04T11:23:22.974Z,1009.92
2019-01-04T11:24:22.973Z,1009.9
2019-01-04T11:25:22.953Z,1009.93
2019-01-04T11:26:22.942Z,1009.93
2019-01-04T11:27:22.935Z,1009.9
2019-01-04T11:28:22.923Z,1009.96
2019-01-04T11:29:22.914Z,1009.93
2019-01-04T11:30:22.903Z,1009.89
2019-01-04T11:31:22.894Z,1009.91
2019-01-04T11:32:22.882Z,1009.86
2019-01-04T11:33:22.872Z,1009.88
2019-01-04T11:34:22.865Z,1009.84
2019-01-04T11:35:22.853Z,1009.84
2019-01-04T11:36:22.848Z,1009.81
2019-01-04T11:37:22.836Z,1009.84
2019-01-04T11:38:22.836Z,1009.79
2019-01-04T11:39:22.818Z,1009.78
2019-01-04T11:40:22.810Z,1009.72
2019-01-04T11:41:22.803Z,1009.73
2019-01-04T11:42:22.782Z,1009.67
2019-01-04T11:43:22.772Z,1009.61
2019-01-04T11:44:22.764Z,1009.59
2019-01-04T11:45:22.754Z,1009.6
2019-01-04T11:46:22.751Z,1009.58
2019-01-04T11:47:22.735Z,1009.61
2019-01-04T11:48:22.726Z,1009.56
2019-01-04T11:49:22.714Z,1009.56
2019-01-04T11:50:22.716Z,1009.57
2019-01-04T11:51:22.700Z,1009.58
2019-01-04T11:52:22.694Z,1009.65
2019-01-04T11:53:22.708Z,1009.6
2019-01-04T11:54:22.670Z,1009.65
2019-01-04T11:55:22.661Z,1009.65
2019-01-04T11:56:22.655Z,1009.59
2019-01-04T11:57:22.656Z,1009.63
2019-01-04T11:58:22.631Z,1009.63
2019-01-04T11:59:22.617Z,1009.55
2019-01-04T12:00:22.610Z,1009.58
2019-01-04T12:01:22.600Z,1009.6
2019-01-04T12:02:26.289Z,1009.57
2019-01-04T12:03:22.614Z,1009.64
2019-01-04T12:04:22.568Z,1009.66
2019-01-04T12:05:22.561Z,1009.63
2019-01-04T12:06:22.550Z,1009.68
2019-01-04T12:07:22.538Z,1009.71
2019-01-04T12:08:22.533Z,1009.73